createdAt,value
2018-03-30T12:26:26.726Z,1001.89
2018-03-30T12:27:28.116Z,1001.89
2018-03-30T12:28:29.494Z,1001.81
2018-03-30T12:29:30.892Z,1001.84
2018-03-30T12:30:32.285Z,1001.79
2018-03-30T12:31:33.739Z,1001.69
2018-03-30T12:32:35.138Z,1001.73
2018-03-30T12:33:36.532Z,1001.70
2018-03-30T12:34:37.968Z,1001.65
2018-03-30T12:35:39.370Z,1001.62
2018-03-30T12:36:40.795Z,1001.54
2018-03-30T12:37:42.182Z,1001.55
2018-03-30T12:38:43.589Z,1001.57
2018-03-30T12:39:44.993Z,1001.57
2018-03-30T12:40:46.400Z,1001.56
2018-03-30T12:41:47.810Z,1001.62
2018-03-30T12:42:49.219Z,1001.56
2018-03-30T12:43:50.627Z,1001.60
2018-03-30T12:44:52.025Z,1001.56
2018-03-30T12:45:53.430Z,1001.63
2018-03-30T12:46:54.831Z,1001.59
2018-03-30T12:47:56.225Z,1001.58
2018-03-30T12:48:57.624Z,1001.55
2018-03-30T12:49:59.019Z,1001.51
2018-03-30T12:51:00.424Z,1001.45
2018-03-30T12:52:01.824Z,1001.53
2018-03-30T12:53:03.266Z,1001.52
2018-03-30T12:54:04.630Z,1001.59
2018-03-30T12:55:06.047Z,1001.53
2018-03-30T12:56:07.463Z,1001.52
2018-03-30T12:57:08.854Z,1001.53
2018-03-30T12:58:10.272Z,1001.47
2018-03-30T12:59:11.721Z,1001.54
2018-03-30T13:00:13.086Z,1001.51
2018-03-30T13:01:14.484Z,1001.46
2018-03-30T13:02:15.859Z,1001.40
2018-03-30T13:03:17.256Z,1001.38
2018-03-30T13:04:18.659Z,1001.37
2018-03-30T13:05:20.062Z,1001.39
2018-03-30T13:06:21.457Z,1001.34
2018-03-30T13:07:22.857Z,1001.34
2018-03-30T13:08:24.297Z,1001.34
2018-03-30T13:09:25.701Z,1001.29
2018-03-30T13:10:27.108Z,1001.31
2018-03-30T13:11:28.505Z,1001.26
2018-03-30T13:12:29.911Z,1001.28
2018-03-30T13:13:31.311Z,1001.26
2018-03-30T13:14:32.707Z,1001.26
2018-03-30T13:15:34.122Z,1001.23
2018-03-30T13:16:35.646Z,1001.23
2018-03-30T13:17:37.039Z,1001.21
2018-03-30T13:18:38.441Z,1001.22
2018-03-30T13:19:39.970Z,1001.16
2018-03-30T13:20:41.374Z,1001.17
2018-03-30T13:21:42.767Z,1001.13
2018-03-30T13:22:44.882Z,1001.16
2018-03-30T13:23:45.610Z,1001.13
2018-03-30T13:24:47.008Z,1001.10
2018-03-30T13:25:48.478Z,1001.09
2018-03-30T13:26:49.876Z,1001.13
2018-03-30T13:27:51.259Z,1001.12
2018-03-30T13:28:52.734Z,1001.11
2018-03-30T13:29:54.120Z,1001.09
2018-03-30T13:30:55.516Z,1001.08
2018-03-30T13:31:56.905Z,1001.06
2018-03-30T13:32:58.308Z,1001.06
2018-03-30T13:34:00.486Z,1001.01
2018-03-30T13:35:01.878Z,1000.98
2018-03-30T13:36:04.030Z,1001.00
2018-03-30T13:37:05.425Z,1000.96
2018-03-30T13:38:06.826Z,1000.93
2018-03-30T13:39:08.211Z,1000.88
2018-03-30T13:40:09.609Z,1000.84
2018-03-30T13:41:10.992Z,1000.85
2018-03-30T13:42:12.391Z,1000.81
2018-03-30T13:43:13.805Z,1000.73
2018-03-30T13:44:19.526Z,1000.78
2018-03-30T13:45:20.913Z,1000.72
2018-03-30T13:46:22.306Z,1000.76
2018-03-30T13:47:23.694Z,1000.70
2018-03-30T13:48:25.085Z,1000.63
2018-03-30T13:49:28.864Z,1000.63
2018-03-30T13:50:32.772Z,1000.65
2018-03-30T13:51:34.154Z,1000.61
2018-03-30T13:52:35.542Z,1000.58
2018-03-30T13:53:37.010Z,1000.54
2018-03-30T13:54:41.250Z,1000.56
2018-03-30T13:55:44.916Z,1000.57
2018-03-30T13:56:48.917Z,1000.57
2018-03-30T13:57:53.001Z,1000.53
2018-03-30T13:58:56.939Z,1000.58
2018-03-30T13:59:58.329Z,1000.49
2018-03-30T14:00:59.917Z,1000.48
2018-03-30T14:02:03.555Z,1000.50
2018-03-30T14:03:07.764Z,1000.48
2018-03-30T14:04:09.197Z,1000.41
2018-03-30T14:05:10.581Z,1000.37
2018-03-30T14:06:11.981Z,1000.46
2018-03-30T14:07:13.487Z,1000.43
2018-03-30T14:08:14.879Z,1000.32
2018-03-30T14:09:16.273Z,1000.30
2018-03-30T14:10:17.969Z,1000.32
2018-03-30T14:11:19.356Z,1000.20
2018-03-30T14:12:20.750Z,1000.18
2018-03-30T14:13:22.260Z,1000.20
2018-03-30T14:14:25.860Z,1000.09
2018-03-30T14:15:27.244Z,1000.18
2018-03-30T14:16:28.837Z,1000.14
2018-03-30T14:17:31.901Z,1000.09
2018-03-30T14:18:35.545Z,1000.06
2018-03-30T14:19:37.766Z,1000.10
2018-03-30T14:20:41.337Z,1000.10
2018-03-30T14:21:43.449Z,1000.08
2018-03-30T14:22:46.882Z,1000.11
2018-03-30T14:23:48.902Z,1000.09
2018-03-30T14:24:53.500Z,1000.17
2018-03-30T14:25:55.014Z,1000.16
2018-03-30T14:26:56.407Z,1000.11
2018-03-30T14:27:57.840Z,1000.11
2018-03-30T14:29:01.287Z,1000.10
2018-03-30T14:30:03.339Z,1000.08
2018-03-30T14:31:06.714Z,1000.08
2018-03-30T14:32:08.173Z,1000.08
2018-03-30T14:33:09.591Z,1000.10
2018-03-30T14:34:10.963Z,1000.09
2018-03-30T14:35:16.537Z,1000.09
2018-03-30T14:36:17.929Z,1000.04
2018-03-30T14:37:19.308Z,1000.02
2018-03-30T14:38:20.690Z,1000.05
2018-03-30T14:39:22.067Z,1000.05
2018-03-30T14:40:23.449Z,1000.04
2018-03-30T14:41:24.837Z,1000.02
2018-03-30T14:42:26.216Z,1000.06
2018-03-30T14:43:29.918Z,1000.02
2018-03-30T14:44:31.302Z,1000.10
2018-03-30T14:45:32.687Z,1000.08
2018-03-30T14:46:36.919Z,1000.06
2018-03-30T14:47:38.522Z,1000.06
2018-03-30T14:48:39.908Z,1000.08
2018-03-30T14:49:41.300Z,1000.07
2018-03-30T14:50:44.933Z,1000.02
2018-03-30T14:51:48.291Z,1000.03
2018-03-30T14:52:49.788Z,1000.04
2018-03-30T14:53:51.168Z,999.97
2018-03-30T14:54:52.547Z,999.91
2018-03-30T14:55:54.077Z,999.97
2018-03-30T14:56:55.452Z,999.97
2018-03-30T14:57:56.846Z,999.96
2018-03-30T14:58:58.330Z,1000.00
2018-03-30T14:59:59.708Z,1000.02
2018-03-30T15:01:01.092Z,1000.03
2018-03-30T15:02:02.880Z,1000.10
2018-03-30T15:03:07.684Z,1000.13
2018-03-30T15:04:10.926Z,1000.07
2018-03-30T15:05:15.086Z,1000.05
2018-03-30T15:06:19.139Z,1000.03
2018-03-30T15:07:23.752Z,1000.06
2018-03-30T15:08:27.021Z,1000.03
2018-03-30T15:09:30.916Z,1000.04
2018-03-30T15:10:35.213Z,1000.02
2018-03-30T15:11:42.611Z,999.98
2018-03-30T15:12:43.999Z,999.95
2018-03-30T15:13:47.560Z,999.94
2018-03-30T15:14:51.662Z,999.97
2018-03-30T15:15:59.100Z,1000.03
2018-03-30T15:17:06.870Z,999.96
2018-03-30T15:18:13.553Z,1000.01
2018-03-30T15:19:14.926Z,1000.03
2018-03-30T15:20:16.380Z,1000.02
2018-03-30T15:21:18.528Z,1000.02
2018-03-30T15:22:22.999Z,1000.04
2018-03-30T15:23:24.384Z,999.97
2018-03-30T15:24:25.768Z,999.99
2018-03-30T15:25:27.902Z,1000.04
2018-03-30T15:26:29.237Z,1000.00
2018-03-30T15:27:30.574Z,999.99
2018-03-30T15:28:31.953Z,999.95
2018-03-30T15:29:33.330Z,999.93
2018-03-30T15:30:34.721Z,999.97
2018-03-30T15:31:38.417Z,1000.01
2018-03-30T15:32:41.105Z,1000.01
2018-03-30T15:33:42.585Z,1000.00
2018-03-30T15:34:43.966Z,1000.01
2018-03-30T15:35:46.734Z,1000.01
2018-03-30T15:36:50.737Z,1000.02
2018-03-30T15:37:52.132Z,1000.04
2018-03-30T15:38:55.210Z,1000.03
2018-03-30T15:39:58.707Z,1000.02
2018-03-30T15:41:00.088Z,1000.04
2018-03-30T15:42:03.099Z,1000.05
2018-03-30T15:43:04.484Z,1000.14
2018-03-30T15:44:06.097Z,1000.03
2018-03-30T15:45:10.478Z,1000.06
2018-03-30T15:46:11.860Z,1000.03
2018-03-30T15:47:15.087Z,1000.05
2018-03-30T15:48:22.100Z,999.99
2018-03-30T15:49:29.205Z,999.93
2018-03-30T15:50:33.842Z,999.93
2018-03-30T15:51:37.948Z,999.91
2018-03-30T15:52:40.120Z,999.98
2018-03-30T15:53:42.490Z,999.92
2018-03-30T15:54:46.861Z,999.94
2018-03-30T15:55:48.280Z,999.93
2018-03-30T15:56:51.902Z,999.96
2018-03-30T15:57:53.283Z,999.97
2018-03-30T15:58:56.469Z,999.97
2018-03-30T15:59:57.844Z,999.90
2018-03-30T16:00:59.220Z,999.96
2018-03-30T16:02:00.646Z,999.91
2018-03-30T16:03:02.032Z,999.89
2018-03-30T16:04:03.412Z,999.95
2018-03-30T16:05:04.791Z,999.95
2018-03-30T16:06:08.078Z,999.93
2018-03-30T16:07:09.460Z,999.98
2018-03-30T16:08:11.251Z,999.96
2018-03-30T16:09:13.986Z,999.98
2018-03-30T16:10:15.374Z,999.94
2018-03-30T16:11:17.452Z,999.94
2018-03-30T16:12:19.928Z,999.93
2018-03-30T16:13:21.316Z,999.83
2018-03-30T16:14:22.713Z,999.87
2018-03-30T16:15:26.632Z,999.93
2018-03-30T16:16:30.329Z,999.88
2018-03-30T16:17:32.463Z,999.88
2018-03-30T16:18:34.675Z,999.89
2018-03-30T16:19:37.484Z,999.92
2018-03-30T16:20:42.114Z,999.94
2018-03-30T16:21:43.578Z,1000.01
2018-03-30T16:22:45.843Z,1000.02
2018-03-30T16:23:47.270Z,1000.01
2018-03-30T16:24:48.688Z,999.99
2018-03-30T16:25:51.837Z,1000.06
2018-03-30T16:26:53.934Z,1000.07
2018-03-30T16:27:55.960Z,1000.04
2018-03-30T16:28:57.810Z,1000.07
2018-03-30T16:29:59.581Z,1000.07
2018-03-30T16:31:02.674Z,1000.09
2018-03-30T16:32:04.052Z,1000.06
2018-03-30T16:33:05.968Z,1000.04
2018-03-30T16:34:08.813Z,1000.03
2018-03-30T16:35:14.158Z,1000.00
2018-03-30T16:36:17.333Z,1000.00
2018-03-30T16:37:19.796Z,1000.01
2018-03-30T16:38:22.964Z,999.99
2018-03-30T16:39:25.381Z,1000.01
2018-03-30T16:40:27.719Z,999.95
2018-03-30T16:41:29.787Z,999.95
2018-03-30T16:42:31.164Z,999.96
2018-03-30T16:43:32.638Z,999.93
2018-03-30T16:44:34.071Z,999.96
2018-03-30T16:45:35.353Z,999.97
2018-03-30T16:46:36.742Z,1000.04
2018-03-30T16:47:38.128Z,1000.00
2018-03-30T16:48:40.207Z,1000.04
2018-03-30T16:49:42.162Z,1000.07
2018-03-30T16:50:44.117Z,1000.01
2018-03-30T16:51:45.495Z,999.97
2018-03-30T16:52:46.871Z,999.99
2018-03-30T16:53:48.243Z,1000.02
2018-03-30T16:54:49.636Z,1000.03
2018-03-30T16:55:51.027Z,999.97
2018-03-30T16:56:52.400Z,1000.03
2018-03-30T16:57:53.779Z,1000.03
2018-03-30T16:58:55.166Z,999.99
2018-03-30T16:59:56.561Z,1000.01
2018-03-30T17:00:57.960Z,999.96
2018-03-30T17:01:59.329Z,999.97
2018-03-30T17:03:00.720Z,999.97
2018-03-30T17:04:02.097Z,999.96
2018-03-30T17:05:03.485Z,999.95
2018-03-30T17:06:04.860Z,999.93
2018-03-30T17:07:06.229Z,999.90
2018-03-30T17:08:07.639Z,999.97
2018-03-30T17:09:09.045Z,999.99
2018-03-30T17:10:10.417Z,1000.02
2018-03-30T17:11:13.010Z,1000.04
2018-03-30T17:12:17.255Z,1000.06
2018-03-30T17:13:21.779Z,1000.06
2018-03-30T17:14:25.235Z,1000.04
2018-03-30T17:15:27.987Z,1000.07
2018-03-30T17:16:29.319Z,1000.02
2018-03-30T17:17:32.519Z,1000.05
2018-03-30T17:18:34.179Z,1000.06
2018-03-30T17:19:35.514Z,1000.05
2018-03-30T17:20:36.905Z,1000.03
2018-03-30T17:21:38.247Z,1000.07
2018-03-30T17:22:40.465Z,1000.09
2018-03-30T17:23:41.809Z,1000.08
2018-03-30T17:24:43.164Z,1000.06
2018-03-30T17:25:47.236Z,999.96
2018-03-30T17:26:48.603Z,999.93
2018-03-30T17:27:51.776Z,999.95
2018-03-30T17:28:53.286Z,1000.02
2018-03-30T17:29:55.787Z,1000.04
2018-03-30T17:30:58.000Z,1000.03
2018-03-30T17:32:00.159Z,1000.03
2018-03-30T17:33:02.022Z,999.98
2018-03-30T17:34:04.001Z,1000.03
2018-03-30T17:35:06.100Z,1000.00
2018-03-30T17:36:10.173Z,1000.01
2018-03-30T17:37:12.659Z,1000.01
2018-03-30T17:38:16.655Z,999.97
2018-03-30T17:39:18.036Z,1000.03
2018-03-30T17:40:19.450Z,1000.00
2018-03-30T17:41:21.502Z,999.99
2018-03-30T17:42:22.869Z,999.97
2018-03-30T17:43:27.999Z,999.92
2018-03-30T17:44:29.373Z,999.93
2018-03-30T17:45:30.751Z,1000.00
2018-03-30T17:46:32.132Z,999.94
2018-03-30T17:47:36.800Z,999.91
2018-03-30T17:48:38.195Z,999.93
2018-03-30T17:49:39.572Z,999.91
2018-03-30T17:50:40.947Z,999.93
2018-03-30T17:51:45.166Z,999.89
2018-03-30T17:52:46.506Z,999.86
2018-03-30T17:53:50.289Z,999.90
2018-03-30T17:54:51.622Z,999.92
2018-03-30T17:55:52.956Z,999.94
2018-03-30T17:56:54.336Z,999.91
2018-03-30T17:57:55.664Z,999.98
2018-03-30T17:58:57.045Z,1000.01
2018-03-30T17:59:58.424Z,1000.03
2018-03-30T18:00:59.804Z,1000.02
2018-03-30T18:02:01.177Z,1000.03
2018-03-30T18:03:02.512Z,1000.02
2018-03-30T18:04:03.847Z,1000.05
2018-03-30T18:05:05.230Z,1000.03
2018-03-30T18:06:06.611Z,1000.04
2018-03-30T18:07:07.995Z,1000.07
2018-03-30T18:08:09.374Z,1000.11
2018-03-30T18:09:10.751Z,1000.10
2018-03-30T18:10:12.146Z,1000.09
2018-03-30T18:11:13.474Z,1000.11
2018-03-30T18:12:14.856Z,1000.09
2018-03-30T18:13:16.235Z,1000.16
2018-03-30T18:14:17.611Z,1000.20
2018-03-30T18:15:18.996Z,1000.20
2018-03-30T18:16:20.380Z,1000.17
2018-03-30T18:17:21.755Z,1000.21
2018-03-30T18:18:23.131Z,1000.18
2018-03-30T18:19:24.499Z,1000.18
2018-03-30T18:20:25.838Z,1000.23
2018-03-30T18:21:27.224Z,1000.22
2018-03-30T18:22:31.094Z,1000.29
2018-03-30T18:23:35.230Z,1000.19
2018-03-30T18:24:39.044Z,1000.20
2018-03-30T18:25:40.422Z,1000.23
2018-03-30T18:26:41.789Z,1000.18
2018-03-30T18:27:43.276Z,1000.17
2018-03-30T18:28:46.963Z,1000.14
2018-03-30T18:29:48.332Z,1000.15
2018-03-30T18:30:51.194Z,1000.19
2018-03-30T18:31:52.529Z,1000.17
2018-03-30T18:32:55.992Z,1000.18
2018-03-30T18:33:57.363Z,1000.19
2018-03-30T18:34:58.749Z,1000.21
2018-03-30T18:36:00.123Z,1000.18
2018-03-30T18:37:01.530Z,1000.18
2018-03-30T18:38:02.876Z,1000.20
2018-03-30T18:39:05.582Z,1000.13
2018-03-30T18:40:06.956Z,1000.21
2018-03-30T18:41:08.333Z,1000.18
2018-03-30T18:42:09.718Z,1000.17
2018-03-30T18:43:11.084Z,1000.15
2018-03-30T18:44:12.467Z,1000.18
2018-03-30T18:45:15.125Z,1000.18
2018-03-30T18:46:16.498Z,1000.19
2018-03-30T18:47:17.879Z,1000.18
2018-03-30T18:48:19.258Z,1000.18
2018-03-30T18:49:20.638Z,1000.16
2018-03-30T18:50:24.772Z,1000.19
2018-03-30T18:51:26.047Z,1000.18
2018-03-30T18:52:27.424Z,1000.18
2018-03-30T18:53:28.819Z,1000.20
2018-03-30T18:54:30.193Z,1000.17
2018-03-30T18:55:33.244Z,1000.15
2018-03-30T18:56:34.623Z,1000.15
2018-03-30T18:57:36.009Z,1000.16
2018-03-30T18:58:37.391Z,1000.18
2018-03-30T18:59:39.564Z,1000.06
2018-03-30T19:00:41.478Z,1000.08
2018-03-30T19:01:43.437Z,1000.02
2018-03-30T19:02:44.189Z,1000.01
2018-03-30T19:03:45.569Z,999.98
2018-03-30T19:04:46.944Z,999.99
2018-03-30T19:05:48.332Z,1000.04
2018-03-30T19:06:49.715Z,1000.00
2018-03-30T19:07:51.095Z,1000.00
2018-03-30T19:08:53.643Z,999.98
2018-03-30T19:09:57.139Z,1000.02
2018-03-30T19:10:58.513Z,999.97
2018-03-30T19:11:59.893Z,999.97
2018-03-30T19:13:02.131Z,1000.01
2018-03-30T19:14:03.787Z,1000.02
2018-03-30T19:15:05.170Z,1000.01
2018-03-30T19:16:07.050Z,999.97
2018-03-30T19:17:08.448Z,999.96
2018-03-30T19:18:12.697Z,1000.00
2018-03-30T19:19:14.969Z,1000.08
2018-03-30T19:20:16.479Z,1000.06
2018-03-30T19:21:18.202Z,1000.06
2018-03-30T19:22:20.424Z,1000.00
2018-03-30T19:23:21.844Z,999.97
2018-03-30T19:24:23.204Z,999.98
2018-03-30T19:25:24.523Z,1000.06
2018-03-30T19:26:26.950Z,1000.07
2018-03-30T19:27:28.489Z,1000.10
2018-03-30T19:28:30.384Z,1000.11
2018-03-30T19:29:32.121Z,1000.10
2018-03-30T19:30:34.120Z,1000.08
2018-03-30T19:31:35.508Z,1000.11
2018-03-30T19:32:37.084Z,1000.11
2018-03-30T19:33:39.161Z,1000.14
2018-03-30T19:34:41.002Z,1000.08
2018-03-30T19:35:42.414Z,1000.11
2018-03-30T19:36:43.790Z,1000.14
2018-03-30T19:37:45.170Z,1000.08
2018-03-30T19:38:46.656Z,1000.07
2018-03-30T19:39:48.230Z,1000.06
2018-03-30T19:40:51.131Z,1000.03
2018-03-30T19:41:52.638Z,1000.03
2018-03-30T19:42:54.716Z,1000.01
2018-03-30T19:43:56.785Z,999.97
2018-03-30T19:44:58.600Z,999.95
2018-03-30T19:45:59.933Z,1000.11
2018-03-30T19:47:01.845Z,1000.02
2018-03-30T19:48:04.341Z,1000.00
2018-03-30T19:49:05.709Z,999.97
2018-03-30T19:50:07.091Z,999.94
2018-03-30T19:51:09.104Z,999.96
2018-03-30T19:52:10.472Z,999.97
2018-03-30T19:53:11.854Z,999.99
2018-03-30T19:54:14.288Z,1000.02
2018-03-30T19:55:16.692Z,1000.05
2018-03-30T19:56:18.065Z,1000.03
2018-03-30T19:57:20.315Z,1000.05
2018-03-30T19:58:21.646Z,1000.00
2018-03-30T19:59:23.019Z,999.96
2018-03-30T20:00:24.391Z,1000.00
2018-03-30T20:01:25.831Z,999.99
2018-03-30T20:02:27.255Z,999.98
2018-03-30T20:03:28.562Z,1000.02
2018-03-30T20:04:29.922Z,1000.07
2018-03-30T20:05:31.312Z,1000.03
2018-03-30T20:06:32.694Z,1000.03
2018-03-30T20:07:34.055Z,1000.02
2018-03-30T20:08:35.601Z,999.96
2018-03-30T20:09:36.970Z,1000.00
2018-03-30T20:10:39.770Z,999.94
2018-03-30T20:11:41.147Z,999.95
2018-03-30T20:12:43.503Z,999.95
2018-03-30T20:13:44.871Z,999.97
2018-03-30T20:14:46.252Z,999.94
2018-03-30T20:15:47.580Z,999.93
2018-03-30T20:16:48.949Z,999.94
2018-03-30T20:17:50.285Z,999.94
2018-03-30T20:18:52.447Z,999.92
2018-03-30T20:19:53.829Z,999.93
2018-03-30T20:20:55.196Z,999.88
2018-03-30T20:21:56.588Z,999.90
2018-03-30T20:22:58.703Z,999.88
2018-03-30T20:24:00.037Z,999.87
2018-03-30T20:25:02.036Z,999.86
2018-03-30T20:26:04.379Z,999.79
2018-03-30T20:27:05.726Z,999.79
2018-03-30T20:28:07.209Z,999.77
2018-03-30T20:29:08.634Z,999.73
2018-03-30T20:30:10.002Z,999.70
2018-03-30T20:31:13.618Z,999.78
2018-03-30T20:32:15.007Z,999.83
2018-03-30T20:33:16.368Z,999.86
2018-03-30T20:34:18.554Z,999.88
2018-03-30T20:35:19.926Z,999.82
2018-03-30T20:36:23.636Z,999.85
2018-03-30T20:37:27.951Z,999.78
2018-03-30T20:38:32.029Z,999.77
2018-03-30T20:39:35.355Z,999.77
2018-03-30T20:40:40.033Z,999.75
2018-03-30T20:41:43.169Z,999.75
2018-03-30T20:42:44.582Z,999.76
2018-03-30T20:43:48.075Z,999.75
2018-03-30T20:44:49.464Z,999.72
2018-03-30T20:45:52.593Z,999.71
2018-03-30T20:46:55.171Z,999.69
2018-03-30T20:47:56.745Z,999.68
2018-03-30T20:49:00.361Z,999.66
2018-03-30T20:50:04.493Z,999.72
2018-03-30T20:51:08.401Z,999.73
2018-03-30T20:52:12.183Z,999.69
2018-03-30T20:53:14.240Z,999.60
2018-03-30T20:54:18.503Z,999.69
2018-03-30T20:55:22.344Z,999.76
2018-03-30T20:56:23.716Z,999.68
2018-03-30T20:57:25.101Z,999.67
2018-03-30T20:58:29.367Z,999.69
2018-03-30T20:59:30.747Z,999.63
2018-03-30T21:00:33.628Z,999.67
2018-03-30T21:01:35.001Z,999.65
2018-03-30T21:02:38.008Z,999.61
2018-03-30T21:03:39.385Z,999.59
2018-03-30T21:04:40.749Z,999.60
2018-03-30T21:05:42.128Z,999.64
2018-03-30T21:06:43.503Z,999.63
2018-03-30T21:07:44.883Z,999.56
2018-03-30T21:08:46.252Z,999.57
2018-03-30T21:09:47.633Z,999.55
2018-03-30T21:10:49.008Z,999.57
2018-03-30T21:11:50.368Z,999.51
2018-03-30T21:12:51.750Z,999.54
2018-03-30T21:13:53.128Z,999.50
2018-03-30T21:14:54.500Z,999.49
2018-03-30T21:15:55.877Z,999.40
2018-03-30T21:16:57.198Z,999.44
2018-03-30T21:17:59.354Z,999.51
2018-03-30T21:19:00.736Z,999.46
2018-03-30T21:20:03.471Z,999.41
2018-03-30T21:21:04.858Z,999.45
2018-03-30T21:22:06.231Z,999.46
2018-03-30T21:23:07.601Z,999.41
2018-03-30T21:24:10.257Z,999.44
2018-03-30T21:25:13.237Z,999.52
2018-03-30T21:26:15.594Z,999.54
2018-03-30T21:27:16.970Z,999.53
2018-03-30T21:28:18.297Z,999.64
2018-03-30T21:29:22.139Z,999.65
2018-03-30T21:30:25.434Z,999.60
2018-03-30T21:31:26.804Z,999.62
2018-03-30T21:32:28.439Z,999.58
2018-03-30T21:33:29.766Z,999.56
2018-03-30T21:34:31.207Z,999.66
2018-03-30T21:35:32.510Z,999.64
2018-03-30T21:36:33.885Z,999.60
2018-03-30T21:37:35.264Z,999.61
2018-03-30T21:38:36.620Z,999.53
2018-03-30T21:39:38.010Z,999.51
2018-03-30T21:40:39.377Z,999.54
2018-03-30T21:41:40.749Z,999.50
2018-03-30T21:42:42.117Z,999.54
2018-03-30T21:43:43.461Z,999.57
2018-03-30T21:44:44.824Z,999.54
2018-03-30T21:45:46.172Z,999.50
2018-03-30T21:46:47.543Z,999.50
2018-03-30T21:47:48.913Z,999.55
2018-03-30T21:48:50.291Z,999.53
2018-03-30T21:49:51.650Z,999.58
2018-03-30T21:50:53.020Z,999.48
2018-03-30T21:51:54.393Z,999.52
2018-03-30T21:52:55.774Z,999.53
2018-03-30T21:53:57.151Z,999.55
2018-03-30T21:54:58.523Z,999.53
2018-03-30T21:55:59.888Z,999.54
2018-03-30T21:57:01.259Z,999.51
2018-03-30T21:58:02.641Z,999.55
2018-03-30T21:59:04.009Z,999.54
2018-03-30T22:00:05.387Z,999.63
2018-03-30T22:01:06.764Z,999.58
2018-03-30T22:02:08.140Z,999.57
2018-03-30T22:03:09.516Z,999.52
2018-03-30T22:04:10.889Z,999.57
2018-03-30T22:05:12.270Z,999.57
2018-03-30T22:06:13.652Z,999.59
2018-03-30T22:07:14.980Z,999.51
2018-03-30T22:08:16.354Z,999.58
2018-03-30T22:09:17.738Z,999.54
2018-03-30T22:10:19.097Z,999.52
2018-03-30T22:11:20.485Z,999.49
2018-03-30T22:12:21.825Z,999.44
2018-03-30T22:13:23.146Z,999.41
2018-03-30T22:14:24.534Z,999.41
2018-03-30T22:15:25.901Z,999.44
2018-03-30T22:16:27.277Z,999.39
2018-03-30T22:17:28.655Z,999.40
2018-03-30T22:18:30.031Z,999.35
2018-03-30T22:19:31.398Z,999.35
2018-03-30T22:20:32.764Z,999.28
2018-03-30T22:21:34.143Z,999.27
2018-03-30T22:22:35.519Z,999.19
2018-03-30T22:23:36.908Z,999.18
2018-03-30T22:24:38.275Z,999.16
2018-03-30T22:25:39.651Z,999.21
2018-03-30T22:26:41.773Z,999.25
2018-03-30T22:27:43.181Z,999.25
2018-03-30T22:28:44.508Z,999.26
2018-03-30T22:29:45.880Z,999.32
2018-03-30T22:30:47.261Z,999.31
2018-03-30T22:31:48.642Z,999.24
2018-03-30T22:32:50.043Z,999.30
2018-03-30T22:33:51.397Z,999.26
2018-03-30T22:34:52.777Z,999.17
2018-03-30T22:35:54.154Z,999.22
2018-03-30T22:36:55.524Z,999.22
2018-03-30T22:37:56.898Z,999.23
2018-03-30T22:38:58.273Z,999.24
2018-03-30T22:39:59.640Z,999.17
2018-03-30T22:41:01.008Z,999.16
2018-03-30T22:42:02.383Z,999.14
2018-03-30T22:43:03.757Z,999.14
2018-03-30T22:44:05.143Z,999.10
2018-03-30T22:45:06.519Z,999.11
2018-03-30T22:46:07.890Z,999.11
2018-03-30T22:47:09.276Z,999.17
2018-03-30T22:48:10.649Z,999.17
2018-03-30T22:49:12.017Z,999.19
2018-03-30T22:50:13.387Z,999.21
2018-03-30T22:51:14.762Z,999.16
2018-03-30T22:52:16.129Z,999.20
2018-03-30T22:53:17.507Z,999.26
2018-03-30T22:54:18.869Z,999.25
2018-03-30T22:55:20.256Z,999.25
2018-03-30T22:56:21.621Z,999.18
2018-03-30T22:57:22.989Z,999.14
2018-03-30T22:58:24.367Z,999.13
2018-03-30T22:59:25.737Z,999.09
2018-03-30T23:00:27.109Z,999.05
2018-03-30T23:01:28.493Z,999.03
2018-03-30T23:02:29.875Z,999.01
2018-03-30T23:03:31.252Z,999.04
2018-03-30T23:04:32.634Z,999.13
2018-03-30T23:05:34.003Z,999.14
2018-03-30T23:06:35.371Z,999.13
2018-03-30T23:07:36.809Z,999.13
2018-03-30T23:08:38.122Z,999.15
2018-03-30T23:09:39.479Z,999.16
2018-03-30T23:10:40.856Z,999.14
2018-03-30T23:11:42.229Z,999.16
2018-03-30T23:12:43.616Z,999.09
2018-03-30T23:13:44.977Z,999.11
2018-03-30T23:14:46.346Z,999.13
2018-03-30T23:15:47.720Z,999.11
2018-03-30T23:16:49.090Z,999.10
2018-03-30T23:17:50.470Z,999.02
2018-03-30T23:18:51.831Z,999.08
2018-03-30T23:19:55.818Z,999.00
2018-03-30T23:20:57.190Z,999.03
2018-03-30T23:21:58.753Z,999.04
2018-03-30T23:23:00.120Z,998.99
2018-03-30T23:24:01.488Z,998.98
2018-03-30T23:25:02.881Z,999.02
2018-03-30T23:26:04.237Z,998.97
2018-03-30T23:27:05.888Z,998.94
2018-03-30T23:28:07.261Z,998.90
2018-03-30T23:29:08.636Z,998.90
2018-03-30T23:30:13.308Z,998.86
2018-03-30T23:31:14.675Z,998.90
2018-03-30T23:32:16.044Z,998.96
2018-03-30T23:33:17.421Z,998.95
2018-03-30T23:34:18.794Z,998.93
2018-03-30T23:35:20.166Z,998.89
2018-03-30T23:36:21.533Z,998.93
2018-03-30T23:37:22.905Z,998.93
2018-03-30T23:38:24.283Z,998.84
2018-03-30T23:39:25.697Z,998.79
2018-03-30T23:40:27.024Z,998.77
2018-03-30T23:41:28.399Z,998.81
2018-03-30T23:42:30.560Z,998.78
2018-03-30T23:43:31.926Z,998.80
2018-03-30T23:44:33.295Z,998.84
2018-03-30T23:45:39.128Z,998.87
2018-03-30T23:46:40.497Z,998.85
2018-03-30T23:47:41.859Z,998.93
2018-03-30T23:48:43.233Z,998.91
2018-03-30T23:49:44.604Z,998.83
2018-03-30T23:50:45.981Z,998.83
2018-03-30T23:51:47.348Z,998.83
2018-03-30T23:52:48.713Z,998.71
2018-03-30T23:53:50.096Z,998.65
2018-03-30T23:54:51.459Z,998.59
2018-03-30T23:55:52.823Z,998.61
2018-03-30T23:56:54.196Z,998.55
2018-03-30T23:57:55.570Z,998.63
2018-03-30T23:58:56.941Z,998.59
2018-03-30T23:59:58.320Z,998.58
